Time;durP1;ratioP1;P1;durP2;ratioP2;P2;SDS_P1;SDS_P2;PMS_P1;PMS_P2;Temp;Humidity;BMP_temperature;BMP_pressure;BME280_temperature;BME280_humidity;BME280_pressure;Samples;Min_cycle;Max_cycle;Signal;HPM_P1;HPM_P2
2022/04/22 00:01:26;;;;;;;2.55;1.30;;;16.60;76.40;;;;;;4941660;28;96048;-57
2022/04/22 00:03:58;;;;;;;1.77;1.25;;;16.70;77.10;;;;;;4951760;28;96029;-57
2022/04/22 00:06:30;;;;;;;4.45;1.63;;;16.70;77.00;;;;;;4951392;28;95947;-60
2022/04/22 00:09:02;;;;;;;4.90;1.20;;;16.70;77.00;;;;;;4950130;28;95929;-57
2022/04/22 00:11:33;;;;;;;3.55;1.05;;;16.70;77.10;;;;;;4947699;28;95407;-55
2022/04/22 00:14:09;;;;;;;1.42;0.90;;;16.80;76.90;;;;;;4945535;28;97478;-57
2022/04/22 00:16:40;;;;;;;1.92;1.15;;;16.80;76.70;;;;;;4940069;28;95915;-57
2022/04/22 00:19:12;;;;;;;2.33;1.48;;;16.90;76.60;;;;;;4948218;28;96414;-58
2022/04/22 00:21:43;;;;;;;3.17;1.73;;;16.90;76.20;;;;;;4951406;28;95835;-56
2022/04/22 00:24:20;;;;;;;1.85;0.98;;;17.00;76.00;;;;;;4949848;28;95732;-54
2022/04/22 00:26:52;;;;;;;2.35;1.27;;;17.10;75.80;;;;;;4946937;28;96636;-59
2022/04/22 00:29:25;;;;;;;1.67;1.13;;;17.10;75.50;;;;;;4944570;28;99412;-56
2022/04/22 00:31:56;;;;;;;2.63;1.40;;;17.10;75.50;;;;;;4937232;28;95845;-51
2022/04/22 00:34:27;;;;;;;3.08;1.25;;;17.10;75.50;;;;;;4935926;28;96336;-58
2022/04/22 00:36:58;;;;;;;2.47;1.33;;;17.20;75.40;;;;;;4949260;28;97802;-57
2022/04/22 00:39:29;;;;;;;2.45;1.42;;;17.20;75.30;;;;;;4950450;28;95795;-61
2022/04/22 00:42:10;;;;;;;3.78;1.45;;;17.20;75.30;;;;;;4936731;28;95807;-59
2022/04/22 00:44:41;;;;;;;3.15;1.45;;;17.20;75.30;;;;;;4945275;28;95767;-57
2022/04/22 00:47:12;;;;;;;1.70;0.98;;;17.20;75.30;;;;;;4945298;28;96847;-56
2022/04/22 00:49:44;;;;;;;2.08;1.35;;;17.30;74.40;;;;;;4961497;28;95907;-55
2022/04/22 00:52:14;;;;;;;1.38;0.98;;;17.30;74.80;;;;;;4961682;28;95707;-54
2022/04/22 00:54:44;;;;;;;2.35;1.17;;;17.40;74.80;;;;;;4958462;28;95396;-56
2022/04/22 00:57:18;;;;;;;1.17;1.10;;;17.40;74.80;;;;;;4960810;28;96136;-55
2022/04/22 00:59:51;;;;;;;1.73;1.30;;;17.50;74.80;;;;;;4956767;28;95358;-54
2022/04/22 01:02:24;;;;;;;2.30;1.42;;;17.50;74.70;;;;;;4945121;28;97795;-55
2022/04/22 01:10:38;;;;;;;3.15;1.23;;;17.70;74.30;;;;;;4954244;28;98279;-55
2022/04/22 01:13:09;;;;;;;2.85;1.45;;;17.80;74.30;;;;;;4962810;28;95876;-59
2022/04/22 01:15:40;;;;;;;4.45;1.52;;;17.80;74.10;;;;;;4956026;28;98398;-57
2022/04/22 01:18:17;;;;;;;2.00;1.10;;;17.80;73.90;;;;;;4959644;28;96053;-56
2022/04/22 01:20:48;;;;;;;2.55;1.65;;;17.90;73.20;;;;;;4960590;28;97403;-58
2022/04/22 01:23:20;;;;;;;3.08;1.52;;;18.00;73.50;;;;;;4958230;28;97821;-61
2022/04/22 01:25:52;;;;;;;;;;;18.00;73.30;;;;;;4962416;28;95700;-58
2022/04/22 01:28:23;;;;;;;2.28;1.58;;;18.00;73.30;;;;;;4963326;28;96064;-56
2022/04/22 01:31:00;;;;;;;2.37;1.40;;;18.10;73.10;;;;;;4953090;28;99659;-57
2022/04/22 01:33:34;;;;;;;3.75;1.92;;;18.10;73.20;;;;;;4960938;28;95865;-60
2022/04/22 01:36:08;;;;;;;6.25;2.10;;;18.20;73.10;;;;;;4958250;28;96152;-58
2022/04/22 01:38:39;;;;;;;2.03;1.30;;;18.20;73.10;;;;;;4963354;28;95855;-56
2022/04/22 01:41:11;;;;;;;3.60;1.50;;;18.20;73.00;;;;;;4952831;28;95833;-57
2022/04/22 01:43:42;;;;;;;2.25;1.42;;;18.30;73.00;;;;;;4954948;28;96573;-56
2022/04/22 01:46:15;;;;;;;5.50;1.80;;;18.30;72.70;;;;;;4955267;28;96101;-59
2022/04/22 01:48:46;;;;;;;3.78;1.52;;;18.30;72.80;;;;;;4960715;28;96788;-59
2022/04/22 01:51:18;;;;;;;2.90;1.35;;;18.40;72.50;;;;;;4959777;28;95947;-58
2022/04/22 01:53:48;;;;;;;2.55;1.58;;;18.40;72.50;;;;;;4960935;28;96201;-60
2022/04/22 01:56:20;;;;;;;2.78;1.55;;;18.50;72.30;;;;;;4962510;28;95936;-57
2022/04/22 01:58:50;;;;;;;3.60;1.70;;;18.60;71.10;;;;;;4963540;28;96659;-57
2022/04/22 02:01:21;;;;;;;2.58;1.50;;;18.60;72.10;;;;;;4955459;28;95816;-57
2022/04/22 02:03:52;;;;;;;3.22;1.80;;;18.60;71.90;;;;;;4963717;28;95717;-57
2022/04/22 02:06:23;;;;;;;;;;;18.70;71.70;;;;;;4964535;28;96320;-57
2022/04/22 02:08:54;;;;;;;1.85;1.60;;;18.80;71.50;;;;;;4959400;28;95833;-59
2022/04/22 02:11:25;;;;;;;;;;;18.80;71.30;;;;;;4961965;28;96817;-58
2022/04/22 02:13:55;;;;;;;4.22;1.90;;;18.90;71.10;;;;;;4965308;28;95587;-60
2022/04/22 02:16:26;;;;;;;2.33;1.33;;;18.90;70.30;;;;;;4955902;28;96444;-58
2022/04/22 02:18:57;;;;;;;3.47;1.92;;;18.90;70.80;;;;;;4963343;28;96694;-55
2022/04/22 02:21:28;;;;;;;5.10;1.95;;;19.00;70.60;;;;;;4963437;28;95433;-58
2022/04/22 02:23:58;;;;;;;5.05;1.60;;;19.10;70.60;;;;;;4959213;28;95236;-56
2022/04/22 02:28:31;;;;;;;2.47;1.85;;;19.10;70.30;;;;;;4957728;28;95999;-58
2022/04/22 02:29:20;;;;;;;4.47;1.83;;;19.20;70.20;;;;;;4962203;28;96592;-60
2022/04/22 02:31:52;;;;;;;3.10;1.70;;;19.20;70.00;;;;;;4954367;28;97344;-57
2022/04/22 02:34:24;;;;;;;2.85;1.80;;;19.30;69.70;;;;;;4962954;28;96424;-59
2022/04/22 02:36:55;;;;;;;2.78;1.92;;;19.30;69.70;;;;;;4963369;28;96146;-59
2022/04/22 02:39:25;;;;;;;2.87;1.97;;;19.30;69.60;;;;;;4961761;28;96761;-59
2022/04/22 02:47:35;;;;;;;3.40;2.00;;;19.40;69.60;;;;;;4962443;28;97277;-59
2022/04/22 02:50:06;;;;;;;3.20;1.85;;;19.40;69.40;;;;;;4963026;28;96459;-59
2022/04/22 02:52:36;;;;;;;3.80;1.92;;;19.40;69.40;;;;;;4961195;28;95384;-62
2022/04/22 02:55:07;;;;;;;3.47;1.52;;;19.50;69.30;;;;;;4962104;28;96007;-63
2022/04/22 02:57:38;;;;;;;4.72;2.40;;;19.50;69.20;;;;;;4961076;28;95719;-60
2022/04/22 03:00:11;;;;;;;2.17;1.58;;;19.50;69.10;;;;;;4958377;28;96087;-59
2022/04/22 03:02:43;;;;;;;3.53;1.98;;;19.50;68.90;;;;;;4954616;28;95987;-60
2022/04/22 03:05:14;;;;;;;3.42;1.77;;;19.60;68.90;;;;;;4962949;28;95677;-59
2022/04/22 03:07:45;;;;;;;3.42;1.70;;;19.60;67.40;;;;;;4962895;28;96469;-61
2022/04/22 03:10:17;;;;;;;1.80;1.42;;;19.70;68.70;;;;;;4962798;28;95755;-61
2022/04/22 03:12:48;;;;;;;4.45;2.08;;;19.70;68.70;;;;;;4960930;28;95743;-60
2022/04/22 03:15:19;;;;;;;2.35;1.77;;;19.70;68.60;;;;;;4949536;28;99640;-61
2022/04/22 03:17:49;;;;;;;2.28;1.70;;;19.70;68.70;;;;;;4959293;28;95837;-59
2022/04/22 03:20:19;;;;;;;2.28;1.73;;;19.70;68.40;;;;;;4961792;28;95965;-63
2022/04/22 03:22:51;;;;;;;4.47;2.25;;;19.80;67.80;;;;;;4961823;28;95970;-62
2022/04/22 03:25:21;;;;;;;6.28;2.05;;;19.80;68.50;;;;;;4964075;28;96331;-60
2022/04/22 03:27:51;;;;;;;3.38;1.55;;;19.80;68.20;;;;;;4962101;28;95213;-61
2022/04/22 03:30:21;;;;;;;4.10;2.00;;;19.80;68.00;;;;;;4953424;28;95873;-61
2022/04/22 03:32:51;;;;;;;7.25;2.08;;;19.90;68.00;;;;;;4956000;28;96180;-60
2022/04/22 03:35:23;;;;;;;3.83;1.92;;;19.90;68.00;;;;;;4960632;28;95895;-59
2022/04/22 03:37:55;;;;;;;2.67;1.40;;;19.90;67.80;;;;;;4960588;28;95810;-60
2022/04/22 03:40:25;;;;;;;;;;;19.90;67.70;;;;;;4958688;28;96917;-60
2022/04/22 03:42:56;;;;;;;2.95;2.40;;;19.90;67.70;;;;;;4955716;28;97253;-63
2022/04/22 03:45:26;;;;;;;4.80;2.28;;;20.00;68.00;;;;;;4952961;28;98530;-61
2022/04/22 03:48:00;;;;;;;3.53;1.92;;;20.00;67.80;;;;;;4948243;28;96747;-62
2022/04/22 03:50:32;;;;;;;8.77;2.35;;;20.10;67.90;;;;;;4944897;28;96161;-60
2022/04/22 03:53:03;;;;;;;4.10;2.10;;;20.20;67.80;;;;;;4950671;28;95404;-63
2022/04/22 03:55:34;;;;;;;3.40;2.03;;;20.20;67.70;;;;;;4947366;28;95324;-59
2022/04/22 03:58:12;;;;;;;7.47;2.22;;;20.30;67.60;;;;;;4950696;28;95373;-62
2022/04/22 04:00:46;;;;;;;2.72;1.88;;;20.30;67.60;;;;;;4945565;28;96385;-60
2022/04/22 04:03:22;;;;;;;3.45;2.10;;;20.40;67.60;;;;;;4961230;28;96719;-61
2022/04/22 04:05:52;;;;;;;3.25;2.00;;;20.40;66.90;;;;;;4956343;28;96287;-63
2022/04/22 04:08:24;;;;;;;6.30;2.20;;;20.40;67.40;;;;;;4956789;28;96072;-62
2022/04/22 04:16:26;;;;;;;5.68;2.00;;;20.50;67.30;;;;;;4945310;28;96446;-62
2022/04/22 04:23:14;;;;;;;5.32;2.28;;;20.50;67.30;;;;;;4941991;28;95831;-61
2022/04/22 04:24:38;;;;;;;4.32;2.13;;;20.60;66.80;;;;;;4939361;28;95871;-60
2022/04/22 04:27:08;;;;;;;4.45;1.90;;;20.60;66.90;;;;;;4941066;28;95898;-61
2022/04/22 04:29:46;;;;;;;7.55;2.38;;;20.60;66.80;;;;;;4947431;28;96256;-63
2022/04/22 04:32:18;;;;;;;4.05;1.95;;;20.70;66.80;;;;;;4934369;28;95869;-59
2022/04/22 04:34:50;;;;;;;3.58;2.42;;;20.70;66.70;;;;;;4940097;28;95754;-60
2022/04/22 04:37:21;;;;;;;5.00;2.55;;;20.70;66.50;;;;;;4940484;28;95783;-61
2022/04/22 04:39:54;;;;;;;4.68;2.22;;;20.70;66.40;;;;;;4935470;28;96621;-59
2022/04/22 04:42:29;;;;;;;6.03;2.30;;;20.80;66.60;;;;;;4929271;28;96739;-61
2022/04/22 04:45:00;;;;;;;4.93;2.35;;;20.80;66.30;;;;;;4941687;28;95306;-59
2022/04/22 04:47:31;;;;;;;;;;;20.80;66.20;;;;;;4939565;28;96039;-63
2022/04/22 04:50:03;;;;;;;3.95;2.40;;;20.80;66.00;;;;;;4945683;28;95326;-58
2022/04/22 04:52:37;;;;;;;5.47;2.53;;;20.80;66.00;;;;;;4945124;28;98607;-57
2022/04/22 04:55:11;;;;;;;;;;;20.80;66.00;;;;;;4941179;28;95910;-60
2022/04/22 04:57:43;;;;;;;5.50;3.20;;;20.80;65.90;;;;;;4969840;28;95431;-60
2022/04/22 05:00:20;;;;;;;4.95;2.58;;;20.90;65.80;;;;;;4938080;28;95575;-61
2022/04/22 05:02:51;;;;;;;5.63;2.50;;;20.90;65.80;;;;;;4964172;28;102387;-57
2022/04/22 05:05:23;;;;;;;4.22;2.70;;;20.90;65.50;;;;;;4963825;28;95783;-59
2022/04/22 05:08:00;;;;;;;2.92;2.60;;;20.90;65.70;;;;;;4962020;28;95687;-59
2022/04/22 05:10:32;;;;;;;5.03;3.00;;;20.90;65.50;;;;;;4964026;28;95703;-59
2022/04/22 05:13:04;;;;;;;8.13;2.67;;;20.90;65.50;;;;;;4957077;28;95931;-60
2022/04/22 05:15:36;;;;;;;5.43;2.92;;;20.90;65.30;;;;;;4954756;28;96232;-58
2022/04/22 05:18:06;;;;;;;8.05;2.90;;;20.90;65.20;;;;;;4964529;28;96432;-59
2022/04/22 05:20:37;;;;;;;4.07;2.80;;;21.00;65.30;;;;;;4964241;28;96387;-59
2022/04/22 05:23:09;;;;;;;3.83;2.67;;;20.90;64.90;;;;;;4963550;28;96595;-61
2022/04/22 05:25:38;;;;;;;6.13;2.65;;;21.00;65.00;;;;;;4963249;28;95788;-60
2022/04/22 05:28:08;;;;;;;7.25;2.92;;;21.00;65.00;;;;;;4960315;28;95972;-58
2022/04/22 05:33:28;;;;;;;4.15;2.40;;;20.90;64.90;;;;;;4943639;28;96113;-59
2022/04/22 05:35:59;;;;;;;5.10;2.50;;;21.00;64.90;;;;;;4939490;28;97508;-58
2022/04/22 05:38:30;;;;;;;5.57;2.10;;;20.90;64.60;;;;;;4942812;28;96615;-58
2022/04/22 05:41:02;;;;;;;;;;;21.00;64.90;;;;;;4939147;28;96303;-57
2022/04/22 05:43:33;;;;;;;4.15;2.80;;;20.90;64.60;;;;;;4940209;28;96481;-58
2022/04/22 05:46:04;;;;;;;5.93;2.78;;;21.00;64.80;;;;;;4931647;28;95920;-60
2022/04/22 05:48:35;;;;;;;3.72;2.22;;;21.00;64.60;;;;;;4941735;28;95966;-59
2022/04/22 05:51:06;;;;;;;7.72;2.95;;;20.90;64.50;;;;;;4943317;28;96406;-58
2022/04/22 05:53:36;;;;;;;3.90;2.20;;;21.00;64.50;;;;;;4942416;28;97075;-59
2022/04/22 05:56:06;;;;;;;3.78;2.78;;;21.00;64.30;;;;;;4941735;28;97396;-57
2022/04/22 05:58:38;;;;;;;5.30;2.38;;;21.00;64.50;;;;;;4943839;28;96090;-60
2022/04/22 06:01:09;;;;;;;4.22;2.28;;;21.00;64.10;;;;;;4934674;28;95941;-58
2022/04/22 06:03:39;;;;;;;8.13;3.17;;;21.00;64.40;;;;;;4935881;28;96244;-59
2022/04/22 06:06:10;;;;;;;4.13;2.28;;;20.90;64.40;;;;;;4941943;28;95688;-59
2022/04/22 06:11:29;;;;;;;5.35;2.55;;;21.00;64.10;;;;;;4944098;28;95999;-60
2022/04/22 06:14:00;;;;;;;5.70;2.80;;;21.00;63.80;;;;;;4943293;28;95948;-57
2022/04/22 06:16:32;;;;;;;4.53;2.42;;;20.90;63.40;;;;;;4949478;28;98690;-61
2022/04/22 06:19:05;;;;;;;5.85;2.47;;;21.00;64.00;;;;;;4938611;28;95870;-61
2022/04/22 06:21:39;;;;;;;3.53;2.60;;;20.90;63.70;;;;;;4940682;28;96029;-61
2022/04/22 06:24:09;;;;;;;2.90;1.98;;;20.90;63.70;;;;;;4942283;28;96557;-59
2022/04/22 06:26:38;;;;;;;5.40;2.15;;;20.90;64.40;;;;;;4940201;28;96536;-59
2022/04/22 06:29:09;;;;;;;5.68;2.10;;;21.00;62.30;;;;;;4944008;28;95776;-59
2022/04/22 06:31:39;;;;;;;7.97;2.60;;;20.90;63.60;;;;;;4936067;28;96749;-58
2022/04/22 06:34:14;;;;;;;3.92;2.40;;;20.90;64.10;;;;;;4941058;28;96743;-58
2022/04/22 06:36:45;;;;;;;3.78;2.22;;;20.90;63.70;;;;;;4935630;28;96558;-60
2022/04/22 06:39:16;;;;;;;4.50;2.45;;;20.80;63.60;;;;;;4956210;28;95703;-59
2022/04/22 06:47:43;;;;;;;4.85;1.85;;;20.70;63.80;;;;;;4948902;28;95954;-64
2022/04/22 06:50:19;;;;;;;6.05;2.13;;;20.70;64.20;;;;;;4943118;28;96252;-63
2022/04/22 06:52:49;;;;;;;6.15;2.05;;;20.60;63.30;;;;;;4938975;28;96649;-58
2022/04/22 06:55:19;;;;;;;5.45;1.80;;;20.60;64.50;;;;;;4940674;28;95968;-58
2022/04/22 06:57:50;;;;;;;4.30;2.13;;;20.70;64.80;;;;;;4943470;28;95854;-58
2022/04/22 07:00:21;;;;;;;5.45;2.22;;;20.60;64.60;;;;;;4935421;28;95886;-59
2022/04/22 07:02:52;;;;;;;3.63;2.33;;;20.70;64.60;;;;;;4941379;28;95903;-57
2022/04/22 07:05:24;;;;;;;2.53;1.48;;;20.70;64.70;;;;;;4942589;28;96698;-57
2022/04/22 07:07:54;;;;;;;;;;;20.70;64.70;;;;;;4964564;28;97352;-60
2022/04/22 07:10:26;;;;;;;5.50;1.80;;;20.70;64.60;;;;;;4964527;28;96706;-57
2022/04/22 07:12:58;;;;;;;3.60;1.73;;;20.70;65.20;;;;;;4941598;28;95310;-55
2022/04/22 07:15:30;;;;;;;3.92;2.13;;;20.70;65.10;;;;;;4936246;28;96828;-59
2022/04/22 07:18:00;;;;;;;3.33;1.90;;;20.70;65.10;;;;;;4942262;28;105291;-58
2022/04/22 07:20:31;;;;;;;4.00;1.73;;;20.70;65.10;;;;;;4942183;28;96111;-58
2022/04/22 07:23:04;;;;;;;2.70;1.77;;;20.70;65.00;;;;;;4942855;28;95667;-59
2022/04/22 07:25:36;;;;;;;6.05;2.15;;;20.70;64.80;;;;;;4939003;28;95798;-60
2022/04/22 07:28:06;;;;;;;3.75;1.95;;;20.70;64.80;;;;;;4937960;28;96024;-59
2022/04/22 07:30:39;;;;;;;1.90;1.70;;;20.70;64.70;;;;;;4933838;28;95654;-59
2022/04/22 07:33:12;;;;;;;1.65;1.50;;;20.70;64.90;;;;;;4943283;28;95674;-56
2022/04/22 07:35:43;;;;;;;3.83;1.95;;;20.60;65.00;;;;;;4941493;28;95989;-56
2022/04/22 07:38:14;;;;;;;2.92;1.35;;;20.60;65.30;;;;;;4941311;28;95835;-55
2022/04/22 07:40:51;;;;;;;3.33;1.63;;;20.50;65.40;;;;;;4934986;28;96309;-59
2022/04/22 07:46:58;;;;;;;4.43;2.00;;;20.40;66.10;;;;;;4951322;28;96023;-60
2022/04/22 07:49:29;;;;;;;3.40;1.55;;;20.40;65.40;;;;;;4960280;28;95314;-58
2022/04/22 07:52:01;;;;;;;3.90;2.00;;;20.40;64.90;;;;;;4946560;28;96009;-56
2022/04/22 07:54:32;;;;;;;3.70;1.90;;;20.40;65.30;;;;;;4940504;28;96574;-61
2022/04/22 07:57:03;;;;;;;5.80;1.90;;;20.30;66.10;;;;;;4941728;28;96711;-59
2022/04/22 07:59:33;;;;;;;4.00;1.90;;;20.40;65.90;;;;;;4935853;28;95954;-63
2022/04/22 08:02:07;;;;;;;2.88;1.73;;;20.30;66.00;;;;;;4931335;28;96773;-59
2022/04/22 08:04:38;;;;;;;;;;;20.30;66.20;;;;;;4943106;28;95860;-59
2022/04/22 08:07:09;;;;;;;5.18;2.17;;;20.30;66.90;;;;;;4941828;28;96942;-59
2022/04/22 08:09:55;;;;;;;4.18;2.17;;;20.20;66.30;;;;;;4942074;28;97338;-59
2022/04/22 08:12:26;;;;;;;2.95;1.83;;;20.20;66.40;;;;;;4942443;28;95748;-59
2022/04/22 08:14:59;;;;;;;4.07;1.65;;;20.20;66.60;;;;;;4940176;28;96022;-59
2022/04/22 08:17:38;;;;;;;2.78;1.50;;;20.10;66.80;;;;;;4935126;28;97670;-57
2022/04/22 08:20:10;;;;;;;4.45;1.80;;;20.10;67.00;;;;;;4940426;28;96143;-55
2022/04/22 08:22:44;;;;;;;2.25;1.40;;;20.00;67.10;;;;;;4939466;28;95935;-58
2022/04/22 08:25:14;;;;;;;1.75;1.10;;;20.10;67.30;;;;;;4941501;28;97177;-59
2022/04/22 08:27:46;;;;;;;6.27;2.03;;;20.00;67.00;;;;;;4966708;28;96486;-57
2022/04/22 08:30:16;;;;;;;5.93;1.75;;;20.00;66.90;;;;;;4938408;28;96585;-59
2022/04/22 08:32:47;;;;;;;2.90;1.65;;;20.00;66.80;;;;;;4947564;28;95973;-58
2022/04/22 08:35:18;;;;;;;3.15;1.63;;;20.10;66.90;;;;;;4935676;28;96292;-58
2022/04/22 08:37:49;;;;;;;3.65;1.73;;;20.10;66.20;;;;;;4940474;28;95985;-57
2022/04/22 08:40:21;;;;;;;;;;;20.10;66.90;;;;;;4937035;28;95816;-56
2022/04/22 08:42:52;;;;;;;4.97;2.75;;;20.10;67.00;;;;;;4955442;28;95871;-57
2022/04/22 08:45:28;;;;;;;6.05;2.47;;;20.10;67.00;;;;;;4933770;28;96016;-61
2022/04/22 08:50:56;;;;;;;6.40;2.65;;;20.10;67.20;;;;;;4934350;28;95916;-59
2022/04/22 08:53:30;;;;;;;6.93;2.25;;;20.00;67.20;;;;;;4940780;28;95553;-59
2022/04/22 08:56:03;;;;;;;4.55;2.25;;;20.10;67.60;;;;;;4941655;28;95681;-59
2022/04/22 08:58:36;;;;;;;3.05;2.03;;;20.00;67.40;;;;;;4938687;28;95986;-59
2022/04/22 09:01:08;;;;;;;3.80;2.33;;;20.00;67.40;;;;;;4929826;28;95900;-55
2022/04/22 09:03:39;;;;;;;3.67;2.05;;;20.00;67.40;;;;;;4937546;28;95855;-57
2022/04/22 09:06:11;;;;;;;3.10;2.03;;;19.90;67.30;;;;;;4941794;28;95670;-57
2022/04/22 09:08:43;;;;;;;3.85;2.22;;;19.80;67.50;;;;;;4944698;28;97973;-55
2022/04/22 09:11:13;;;;;;;5.07;2.45;;;19.80;67.50;;;;;;4945803;28;95618;-54
2022/04/22 09:13:43;;;;;;;3.78;1.42;;;19.70;67.60;;;;;;4946133;28;95804;-56
2022/04/22 09:16:23;;;;;;;;;;;19.70;67.80;;;;;;4935431;28;95472;-57
2022/04/22 09:19:02;;;;;;;3.67;1.75;;;19.60;67.80;;;;;;4942312;28;95771;-55
2022/04/22 09:21:33;;;;;;;7.43;2.20;;;19.60;68.50;;;;;;4940331;28;95813;-57
2022/04/22 09:24:15;;;;;;;4.57;2.28;;;19.60;68.00;;;;;;4944871;28;95896;-57
2022/04/22 09:26:45;;;;;;;5.10;1.70;;;19.50;67.90;;;;;;4945840;28;95656;-57
2022/04/22 09:29:16;;;;;;;5.43;2.13;;;19.50;68.10;;;;;;4933908;28;96830;-57
2022/04/22 09:31:48;;;;;;;5.35;2.33;;;19.40;68.00;;;;;;4935424;28;97363;-59
2022/04/22 09:34:36;;;;;;;2.55;1.70;;;19.40;68.10;;;;;;4935834;28;96502;-57
2022/04/22 09:42:39;;;;;;;;;;;19.30;68.10;;;;;;4937288;28;96116;-58
2022/04/22 09:43:22;;;;;;;3.05;2.00;;;19.30;68.20;;;;;;4937572;28;95856;-57
2022/04/22 09:45:54;;;;;;;4.28;2.03;;;19.20;68.30;;;;;;4936204;28;96469;-59
2022/04/22 09:48:25;;;;;;;4.43;1.65;;;19.20;68.30;;;;;;4963763;28;96204;-57
2022/04/22 09:50:57;;;;;;;3.55;1.92;;;19.20;68.30;;;;;;4979830;28;96423;-60
2022/04/22 09:53:34;;;;;;;;;;;19.20;68.40;;;;;;4964175;28;95846;-58
2022/04/22 09:56:09;;;;;;;4.88;1.77;;;19.20;68.40;;;;;;4967807;28;96036;-55
2022/04/22 09:58:39;;;;;;;3.03;1.70;;;19.20;68.50;;;;;;4964800;28;95899;-55
2022/04/22 10:01:10;;;;;;;4.57;1.95;;;19.20;68.50;;;;;;4958119;28;97348;-56
2022/04/22 10:03:44;;;;;;;4.35;1.50;;;19.10;68.50;;;;;;4959026;28;95852;-59
2022/04/22 10:06:19;;;;;;;3.83;1.67;;;19.10;68.60;;;;;;4962570;28;95664;-57
2022/04/22 10:08:51;;;;;;;5.13;1.40;;;19.10;68.60;;;;;;4963002;28;95388;-55
2022/04/22 10:11:22;;;;;;;3.60;1.63;;;19.00;68.50;;;;;;4962205;28;97107;-56
2022/04/22 10:13:54;;;;;;;5.40;1.45;;;19.00;68.70;;;;;;4954942;28;95932;-55
2022/04/22 10:16:28;;;;;;;2.88;1.50;;;19.00;68.70;;;;;;4956553;28;95822;-57
2022/04/22 10:18:59;;;;;;;3.67;1.60;;;19.00;68.90;;;;;;4962426;28;95674;-54
2022/04/22 10:21:31;;;;;;;2.85;1.63;;;19.00;68.30;;;;;;4968159;28;96399;-57
2022/04/22 10:24:01;;;;;;;2.78;1.90;;;19.00;69.10;;;;;;4964284;28;96828;-61
2022/04/22 10:26:32;;;;;;;1.92;1.33;;;19.00;69.10;;;;;;4965106;28;96023;-58
2022/04/22 10:29:05;;;;;;;2.88;1.27;;;19.00;69.10;;;;;;4960324;28;95496;-57
2022/04/22 10:31:39;;;;;;;1.45;1.02;;;19.00;68.50;;;;;;4954603;28;96749;-57
2022/04/22 10:34:12;;;;;;;3.38;1.60;;;19.10;69.20;;;;;;4962187;28;95863;-55
2022/04/22 10:36:44;;;;;;;2.72;1.80;;;19.10;69.10;;;;;;4951557;28;95785;-58
2022/04/22 10:39:34;;;;;;;2.37;1.50;;;19.00;69.10;;;;;;4953451;28;95924;-56
2022/04/22 10:42:17;;;;;;;2.22;1.45;;;18.90;69.10;;;;;;4948323;28;95909;-55
2022/04/22 10:47:47;;;;;;;3.15;2.00;;;18.80;69.10;;;;;;4943571;28;95839;-59
2022/04/22 10:50:35;;;;;;;2.90;1.30;;;18.80;69.00;;;;;;4964900;28;96009;-56
2022/04/22 10:53:10;;;;;;;3.20;1.83;;;18.70;69.10;;;;;;4955000;28;95955;-60
2022/04/22 10:55:41;;;;;;;1.80;1.48;;;18.70;69.20;;;;;;4949594;28;95350;-58
2022/04/22 10:58:33;;;;;;;4.22;1.65;;;18.80;69.30;;;;;;4953274;28;95777;-58
2022/04/22 11:01:04;;;;;;;5.63;1.48;;;18.80;69.30;;;;;;4942250;28;95824;-58
2022/04/22 11:03:37;;;;;;;4.37;2.07;;;18.80;69.30;;;;;;4962016;28;95899;-56
2022/04/22 11:06:13;;;;;;;3.00;1.58;;;18.70;69.40;;;;;;4963548;28;95856;-56
2022/04/22 11:09:00;;;;;;;3.47;1.70;;;18.70;69.40;;;;;;4963143;28;95428;-57
2022/04/22 11:11:42;;;;;;;3.58;1.40;;;18.70;69.40;;;;;;4965551;28;95600;-56
2022/04/22 11:14:21;;;;;;;3.20;1.45;;;18.70;69.50;;;;;;4965053;28;96684;-55
2022/04/22 11:17:16;;;;;;;3.55;1.60;;;18.70;69.60;;;;;;4957671;28;96694;-59
2022/04/22 11:19:59;;;;;;;2.67;1.20;;;18.70;69.60;;;;;;4950599;28;95207;-59
2022/04/22 11:22:56;;;;;;;3.03;1.35;;;18.70;69.80;;;;;;4963242;28;95659;-57
2022/04/22 11:25:29;;;;;;;2.75;1.40;;;18.80;70.10;;;;;;4962818;28;96024;-59
2022/04/22 11:28:02;;;;;;;3.47;1.42;;;18.70;70.20;;;;;;4964847;28;95944;-63
2022/04/22 11:30:33;;;;;;;3.75;1.58;;;18.60;70.40;;;;;;4955932;28;95820;-59
2022/04/22 11:33:24;;;;;;;2.20;1.17;;;18.50;70.60;;;;;;4956902;28;95886;-60
2022/04/22 11:36:00;;;;;;;3.60;1.75;;;18.50;71.40;;;;;;4948104;28;95912;-59
2022/04/22 11:38:32;;;;;;;2.35;1.27;;;18.40;70.80;;;;;;4953359;28;95642;-59
2022/04/22 11:41:03;;;;;;;2.08;1.20;;;18.40;70.50;;;;;;4951100;28;100100;-55
2022/04/22 11:43:34;;;;;;;2.85;1.42;;;18.40;70.40;;;;;;4957261;28;96156;-57
2022/04/22 11:46:07;;;;;;;4.47;1.35;;;18.40;70.70;;;;;;4944955;28;98568;-60
2022/04/22 11:48:53;;;;;;;2.38;1.15;;;18.50;70.80;;;;;;4933464;28;96468;-58
2022/04/22 11:51:25;;;;;;;1.92;1.05;;;18.50;70.80;;;;;;4930210;28;95896;-58
2022/04/22 11:53:55;;;;;;;6.50;1.70;;;18.50;70.80;;;;;;4929423;28;95926;-60
2022/04/22 11:56:25;;;;;;;1.95;1.15;;;18.40;70.90;;;;;;4929505;28;95909;-59
2022/04/22 11:58:59;;;;;;;2.10;1.20;;;18.40;70.90;;;;;;4932543;28;95922;-58
2022/04/22 12:10:06;;;;;;;1.50;1.08;;;18.40;71.10;;;;;;4933091;28;95947;-56
2022/04/22 12:12:50;;;;;;;3.40;1.38;;;18.40;71.20;;;;;;4928471;28;95781;-59
2022/04/22 12:15:21;;;;;;;2.03;1.48;;;18.40;70.50;;;;;;4931072;28;95591;-58
2022/04/22 12:17:56;;;;;;;5.65;1.67;;;18.30;71.30;;;;;;4951333;28;95861;-57
2022/04/22 12:20:27;;;;;;;2.13;1.40;;;18.30;71.40;;;;;;4947205;28;95719;-58
2022/04/22 12:22:58;;;;;;;4.72;1.95;;;18.30;70.90;;;;;;4947869;28;95837;-58
2022/04/22 12:25:32;;;;;;;2.58;1.80;;;18.20;71.50;;;;;;4947121;28;95263;-55
2022/04/22 12:28:13;;;;;;;4.35;2.13;;;18.20;71.50;;;;;;4959282;28;96955;-57
2022/04/22 12:30:44;;;;;;;6.07;1.92;;;18.20;71.60;;;;;;4950119;28;95644;-58
2022/04/22 12:33:23;;;;;;;4.57;1.90;;;18.20;71.70;;;;;;4952225;28;95925;-58
2022/04/22 12:36:10;;;;;;;4.10;1.58;;;18.20;71.70;;;;;;4962816;28;95689;-59
2022/04/22 12:38:41;;;;;;;3.80;1.83;;;18.20;71.80;;;;;;4963651;28;95899;-58
2022/04/22 12:41:22;;;;;;;2.22;1.45;;;18.20;71.90;;;;;;4953716;28;95873;-56
2022/04/22 12:43:55;;;;;;;2.17;1.52;;;18.10;72.00;;;;;;4952633;28;100618;-58
2022/04/22 12:52:12;;;;;;;2.05;1.40;;;18.00;72.60;;;;;;4963502;28;95380;-61
2022/04/22 12:54:48;;;;;;;2.50;1.63;;;18.00;73.10;;;;;;4963499;28;95947;-63
2022/04/22 12:57:25;;;;;;;1.65;1.30;;;17.90;73.30;;;;;;4965448;28;96357;-59
2022/04/22 12:59:57;;;;;;;1.70;1.30;;;18.00;73.50;;;;;;4960694;28;96052;-60
2022/04/22 13:02:49;;;;;;;2.22;1.35;;;18.00;73.60;;;;;;4942869;28;95913;-61
2022/04/22 13:05:23;;;;;;;3.10;1.50;;;18.00;73.80;;;;;;4945358;28;96074;-60
2022/04/22 13:07:54;;;;;;;1.88;1.33;;;18.00;73.50;;;;;;4946617;28;95655;-59
2022/04/22 13:10:24;;;;;;;1.10;1.10;;;18.00;74.10;;;;;;4947160;28;95866;-60
2022/04/22 13:12:55;;;;;;;1.95;1.35;;;18.00;74.10;;;;;;4949511;28;95937;-60
2022/04/22 13:15:26;;;;;;;1.98;1.20;;;18.00;74.10;;;;;;4938262;28;95888;-60
2022/04/22 13:17:56;;;;;;;2.97;1.15;;;18.10;74.10;;;;;;4943314;28;95974;-60
2022/04/22 13:20:26;;;;;;;1.95;1.33;;;18.10;74.20;;;;;;4945605;28;96527;-59
2022/04/22 13:22:58;;;;;;;1.48;1.20;;;18.10;74.10;;;;;;4947831;28;96052;-59
2022/04/22 13:25:27;;;;;;;1.83;1.30;;;18.10;74.10;;;;;;4946946;28;96125;-59
2022/04/22 13:27:58;;;;;;;1.80;1.30;;;18.20;74.10;;;;;;4947928;28;96662;-59
2022/04/22 13:30:29;;;;;;;1.50;1.33;;;18.20;74.10;;;;;;4938662;28;97205;-57
2022/04/22 13:32:59;;;;;;;1.52;1.20;;;18.20;74.20;;;;;;4943805;28;95832;-58
2022/04/22 13:35:30;;;;;;;1.30;1.17;;;18.20;74.30;;;;;;4943248;28;96044;-56
2022/04/22 13:38:01;;;;;;;2.67;1.27;;;18.20;74.10;;;;;;4948019;28;96129;-57
2022/04/22 13:40:34;;;;;;;1.90;1.40;;;18.30;74.20;;;;;;4945417;28;96251;-60
2022/04/22 13:43:05;;;;;;;4.00;1.30;;;18.30;74.80;;;;;;4941108;28;96116;-57
2022/04/22 13:54:06;;;;;;;3.10;1.70;;;18.30;73.80;;;;;;4947375;28;96002;-59
2022/04/22 13:56:38;;;;;;;2.55;1.73;;;18.50;73.30;;;;;;4948489;28;95872;-62
2022/04/22 13:59:07;;;;;;;;;;;18.60;72.70;;;;;;4947990;28;97165;-58
2022/04/22 14:01:37;;;;;;;2.35;1.17;;;18.60;71.90;;;;;;4942059;28;98563;-59
2022/04/22 14:04:10;;;;;;;4.10;1.35;;;18.70;72.40;;;;;;4947143;28;96097;-61
2022/04/22 14:06:42;;;;;;;2.40;1.42;;;18.80;71.90;;;;;;4942982;28;95880;-60
2022/04/22 14:09:13;;;;;;;2.67;1.65;;;18.80;71.60;;;;;;4943471;28;95804;-59
2022/04/22 14:11:45;;;;;;;1.50;1.40;;;18.90;71.10;;;;;;4947050;28;96035;-61
2022/04/22 14:14:19;;;;;;;1.90;1.42;;;19.00;70.60;;;;;;4947049;28;98147;-60
2022/04/22 14:16:52;;;;;;;1.70;1.60;;;19.00;70.20;;;;;;4939210;28;97466;-60
2022/04/22 14:19:25;;;;;;;2.20;1.63;;;19.00;70.40;;;;;;4947289;28;96254;-57
2022/04/22 14:21:57;;;;;;;1.48;1.27;;;19.10;70.50;;;;;;4945335;28;96898;-58
2022/04/22 14:24:29;;;;;;;2.83;1.60;;;19.20;70.30;;;;;;4940512;28;95934;-57
2022/04/22 14:27:02;;;;;;;1.98;1.77;;;19.40;70.20;;;;;;4946747;28;95832;-57